Time;durP1;ratioP1;P1;durP2;ratioP2;P2;SDS_P1;SDS_P2;PMS_P1;PMS_P2;Temp;Humidity;BMP_temperature;BMP_pressure;BME280_temperature;BME280_humidity;BME280_pressure;Samples;Min_cycle;Max_cycle;Signal;HPM_P1;HPM_P2
2023/08/30 00:02:26;;;;;;;1.67;1.58;;;20.90;99.90;;;;;;5029459;28;20198;-68
2023/08/30 00:04:53;;;;;;;1.70;1.60;;;20.80;99.90;;;;;;5023295;28;20199;-68
2023/08/30 00:07:21;;;;;;;1.38;1.27;;;20.80;99.90;;;;;;5022494;28;20242;-68
2023/08/30 00:09:48;;;;;;;1.90;1.65;;;20.80;99.90;;;;;;5005623;28;20210;-69
2023/08/30 00:12:15;;;;;;;1.83;1.73;;;20.70;99.90;;;;;;5015280;28;20644;-69
2023/08/30 00:14:43;;;;;;;2.03;1.83;;;20.70;99.90;;;;;;5017103;28;20571;-69
2023/08/30 00:17:13;;;;;;;1.70;1.60;;;20.70;99.90;;;;;;5019586;28;20198;-68
2023/08/30 00:19:40;;;;;;;2.00;1.90;;;20.60;99.90;;;;;;5030181;28;20214;-69
2023/08/30 00:22:08;;;;;;;1.75;1.65;;;20.70;99.90;;;;;;5029853;28;20557;-68
2023/08/30 00:24:37;;;;;;;1.80;1.70;;;20.70;99.90;;;;;;5030092;28;20204;-69
2023/08/30 00:27:07;;;;;;;1.80;1.70;;;20.70;99.90;;;;;;5027054;28;20241;-69
2023/08/30 00:29:34;;;;;;;1.42;1.33;;;20.70;99.90;;;;;;5027289;28;20302;-69
2023/08/30 00:32:01;;;;;;;1.80;1.70;;;20.70;99.90;;;;;;5011425;28;20206;-69
2023/08/30 00:34:28;;;;;;;2.33;2.00;;;20.70;99.90;;;;;;5030488;28;20199;-69
2023/08/30 00:36:55;;;;;;;2.45;2.25;;;20.70;99.90;;;;;;5009742;28;20199;-69
2023/08/30 00:39:22;;;;;;;2.53;2.38;;;20.70;99.90;;;;;;5012194;28;20314;-69
2023/08/30 00:41:51;;;;;;;2.60;2.40;;;20.70;99.90;;;;;;5022008;28;20201;-69
2023/08/30 00:44:18;;;;;;;2.20;2.10;;;20.70;99.90;;;;;;5028653;28;20194;-69
2023/08/30 00:46:48;;;;;;;2.10;2.00;;;20.70;99.90;;;;;;5029584;28;20253;-69
2023/08/30 00:49:14;;;;;;;2.53;2.35;;;20.70;99.90;;;;;;5011894;28;20741;-69
2023/08/30 00:51:42;;;;;;;1.90;1.80;;;20.70;99.90;;;;;;5012243;28;20318;-69
2023/08/30 00:54:09;;;;;;;1.98;1.88;;;20.80;99.90;;;;;;5014435;28;20200;-69
2023/08/30 00:56:36;;;;;;;2.83;2.25;;;20.80;99.90;;;;;;5028563;28;20213;-69
2023/08/30 00:59:05;;;;;;;2.20;2.00;;;20.80;99.90;;;;;;5013678;28;20297;-69
2023/08/30 01:01:33;;;;;;;2.25;1.95;;;20.70;99.90;;;;;;5030070;28;20187;-69
2023/08/30 01:04:00;;;;;;;2.33;2.13;;;20.70;99.90;;;;;;5028915;28;20721;-69
2023/08/30 01:06:28;;;;;;;2.45;2.25;;;20.80;99.90;;;;;;5027548;28;20270;-69
2023/08/30 01:08:56;;;;;;;2.28;2.17;;;20.70;99.90;;;;;;5029122;28;20218;-69
2023/08/30 01:11:29;;;;;;;2.40;2.20;;;20.70;99.90;;;;;;5024827;28;20404;-69
2023/08/30 01:14:01;;;;;;;2.40;2.20;;;20.80;99.90;;;;;;5007703;28;20203;-70
2023/08/30 01:16:30;;;;;;;2.47;2.28;;;20.80;99.90;;;;;;5030076;28;20194;-70
2023/08/30 01:18:58;;;;;;;2.58;2.38;;;20.80;99.90;;;;;;5032005;28;20211;-70
2023/08/30 01:21:38;;;;;;;3.17;2.63;;;20.80;99.90;;;;;;5032682;28;20229;-69
2023/08/30 01:24:13;;;;;;;2.05;1.95;;;20.80;99.90;;;;;;5014811;28;20202;-70
2023/08/30 01:26:46;;;;;;;2.80;2.60;;;20.80;99.90;;;;;;5023180;28;20190;-70
2023/08/30 01:29:17;;;;;;;2.40;2.20;;;20.80;99.90;;;;;;5015656;28;20682;-69
2023/08/30 01:31:46;;;;;;;1.98;1.88;;;20.80;99.90;;;;;;5019152;28;20212;-69
2023/08/30 01:34:15;;;;;;;2.60;2.40;;;20.90;99.90;;;;;;5032934;28;20195;-69
2023/08/30 01:36:43;;;;;;;2.30;2.15;;;20.80;99.90;;;;;;5013824;28;20213;-69
2023/08/30 01:39:11;;;;;;;2.65;2.20;;;20.80;99.90;;;;;;5032985;28;20215;-69
2023/08/30 01:41:42;;;;;;;2.33;2.20;;;20.80;99.90;;;;;;5032920;28;20750;-70
2023/08/30 01:44:11;;;;;;;3.55;1.88;;;20.80;99.90;;;;;;5015825;28;20213;-69
2023/08/30 01:46:40;;;;;;;1.80;1.70;;;20.80;99.90;;;;;;5016048;28;20284;-68
2023/08/30 01:49:08;;;;;;;1.58;1.50;;;20.90;99.90;;;;;;5016664;28;20195;-69
2023/08/30 01:51:37;;;;;;;1.60;1.50;;;20.80;99.90;;;;;;5015279;28;20620;-69
2023/08/30 01:54:05;;;;;;;1.73;1.63;;;20.80;99.90;;;;;;5017421;28;20242;-68
2023/08/30 01:56:32;;;;;;;2.05;1.95;;;20.90;99.90;;;;;;5014407;28;20240;-69
2023/08/30 01:59:05;;;;;;;2.42;1.88;;;20.90;99.90;;;;;;5013229;28;20218;-69
2023/08/30 02:01:33;;;;;;;2.22;2.05;;;21.20;99.90;;;;;;5014858;28;20207;-69
2023/08/30 02:04:02;;;;;;;1.80;1.70;;;20.90;99.90;;;;;;5031474;28;20190;-69
2023/08/30 02:06:39;;;;;;;1.88;1.77;;;20.90;99.90;;;;;;5010390;28;20543;-69
2023/08/30 02:09:15;;;;;;;1.73;1.63;;;20.80;99.90;;;;;;4997228;28;20516;-69
2023/08/30 02:11:46;;;;;;;2.10;2.00;;;20.80;99.90;;;;;;5012100;28;20732;-68
2023/08/30 02:14:17;;;;;;;1.90;1.80;;;20.80;99.90;;;;;;5008476;28;21375;-69
2023/08/30 02:16:46;;;;;;;1.90;1.80;;;20.80;99.90;;;;;;5010772;28;20205;-69
2023/08/30 02:19:16;;;;;;;1.95;1.85;;;20.80;99.90;;;;;;5010526;28;20207;-69
2023/08/30 02:21:44;;;;;;;1.70;1.60;;;20.70;99.90;;;;;;5009868;28;20317;-69
2023/08/30 02:24:11;;;;;;;1.70;1.60;;;20.80;99.90;;;;;;5003957;28;20199;-69
2023/08/30 02:26:38;;;;;;;2.40;2.20;;;20.80;99.90;;;;;;5003944;28;20801;-69
2023/08/30 02:29:05;;;;;;;2.25;2.05;;;20.70;99.90;;;;;;5001952;28;20203;-69
2023/08/30 02:31:32;;;;;;;2.15;2.05;;;20.70;99.90;;;;;;5010962;28;20231;-69
2023/08/30 02:34:00;;;;;;;2.28;2.17;;;20.70;99.90;;;;;;5010767;28;20244;-69
2023/08/30 02:36:28;;;;;;;1.95;1.85;;;20.70;99.90;;;;;;5011359;28;20206;-69
2023/08/30 02:38:57;;;;;;;2.22;2.03;;;20.80;99.90;;;;;;5006853;28;20209;-69
2023/08/30 02:41:24;;;;;;;1.85;1.75;;;20.80;99.90;;;;;;5006210;28;20191;-69
2023/08/30 02:43:51;;;;;;;2.28;2.08;;;20.80;99.90;;;;;;5007621;28;20250;-69
2023/08/30 02:46:20;;;;;;;1.75;1.65;;;20.80;99.90;;;;;;5010462;28;20207;-69
2023/08/30 02:48:47;;;;;;;1.77;1.67;;;20.80;99.90;;;;;;5003904;28;20257;-69
2023/08/30 02:51:14;;;;;;;2.22;1.80;;;20.80;99.90;;;;;;5012048;28;20278;-69
2023/08/30 02:53:45;;;;;;;1.65;1.55;;;20.80;99.90;;;;;;5008708;28;20276;-69
2023/08/30 02:56:12;;;;;;;2.70;2.50;;;20.80;99.90;;;;;;5011977;28;20195;-69
2023/08/30 02:58:39;;;;;;;2.03;1.92;;;20.80;99.90;;;;;;5009654;28;20203;-69
2023/08/30 03:01:09;;;;;;;2.67;2.47;;;20.80;99.90;;;;;;5011934;28;20221;-69
2023/08/30 03:03:37;;;;;;;2.17;2.00;;;20.80;99.90;;;;;;5008587;28;20298;-69
2023/08/30 03:06:04;;;;;;;3.20;3.00;;;20.80;99.90;;;;;;5009588;28;20219;-69
2023/08/30 03:08:32;;;;;;;2.42;2.22;;;20.70;99.90;;;;;;5008039;28;20202;-70
2023/08/30 03:11:10;;;;;;;2.53;2.33;;;20.70;99.90;;;;;;5012939;28;20241;-70
2023/08/30 03:13:40;;;;;;;2.00;1.90;;;20.70;99.90;;;;;;5011892;28;20194;-69
2023/08/30 03:16:14;;;;;;;1.95;1.85;;;20.70;99.90;;;;;;5030418;28;20253;-69
2023/08/30 03:18:42;;;;;;;2.40;2.20;;;20.70;99.90;;;;;;5013349;28;20205;-69
2023/08/30 03:21:14;;;;;;;2.10;2.00;;;20.70;99.90;;;;;;5029913;28;20215;-69
2023/08/30 03:23:44;;;;;;;1.20;1.20;;;20.70;99.90;;;;;;5029458;28;20187;-70
2023/08/30 03:26:13;;;;;;;1.77;1.67;;;20.70;99.90;;;;;;5026675;28;20258;-70
2023/08/30 03:28:41;;;;;;;1.80;1.70;;;20.70;99.90;;;;;;5028593;28;20336;-70
2023/08/30 03:31:18;;;;;;;2.53;2.33;;;20.70;99.90;;;;;;5030619;28;20637;-69
2023/08/30 03:33:47;;;;;;;1.70;1.60;;;20.70;99.90;;;;;;5009519;28;20289;-71
2023/08/30 03:36:19;;;;;;;1.48;1.40;;;20.70;99.90;;;;;;5008428;28;20207;-70
2023/08/30 03:38:46;;;;;;;1.27;1.27;;;20.70;99.90;;;;;;5028476;28;20253;-69
2023/08/30 03:41:15;;;;;;;1.70;1.60;;;20.80;99.90;;;;;;5024264;28;20558;-70
2023/08/30 03:43:45;;;;;;;1.10;1.10;;;20.80;99.90;;;;;;5009831;28;20240;-70
2023/08/30 03:46:12;;;;;;;1.00;1.00;;;20.80;99.90;;;;;;5008891;28;20214;-70
2023/08/30 03:48:39;;;;;;;1.05;1.05;;;20.80;99.90;;;;;;5029564;28;20202;-70
2023/08/30 03:51:06;;;;;;;1.13;1.13;;;20.80;99.90;;;;;;5030808;28;20256;-70
2023/08/30 03:53:34;;;;;;;1.30;1.20;;;20.80;99.90;;;;;;5011143;28;20248;-70
2023/08/30 03:56:03;;;;;;;1.00;1.00;;;20.80;99.90;;;;;;5030711;28;20242;-70
2023/08/30 03:58:33;;;;;;;0.68;0.68;;;20.80;99.90;;;;;;5028269;28;20198;-70
2023/08/30 04:01:00;;;;;;;0.80;0.80;;;20.80;99.90;;;;;;5029248;28;20214;-70
2023/08/30 04:03:27;;;;;;;1.08;0.80;;;20.70;99.90;;;;;;5011636;28;20264;-70
2023/08/30 04:05:56;;;;;;;0.80;0.80;;;20.70;99.90;;;;;;5012782;28;20201;-70
2023/08/30 04:08:23;;;;;;;0.70;0.70;;;20.70;99.90;;;;;;5010340;28;20222;-70
2023/08/30 04:10:53;;;;;;;0.82;0.82;;;20.70;99.90;;;;;;5012932;28;20194;-70
2023/08/30 04:13:21;;;;;;;0.65;0.65;;;20.70;99.90;;;;;;5011489;28;20499;-69
2023/08/30 04:15:53;;;;;;;0.60;0.60;;;20.80;99.90;;;;;;5000671;28;20562;-69
2023/08/30 04:18:20;;;;;;;0.60;0.60;;;20.70;99.90;;;;;;4998012;28;20199;-69
2023/08/30 04:20:48;;;;;;;0.77;0.77;;;20.70;99.90;;;;;;5008617;28;20218;-70
2023/08/30 04:23:15;;;;;;;0.60;0.60;;;20.70;99.90;;;;;;5021128;28;20286;-69
2023/08/30 04:25:42;;;;;;;0.50;0.50;;;20.70;99.90;;;;;;5012826;28;20229;-70
2023/08/30 04:28:11;;;;;;;0.70;0.70;;;20.70;99.90;;;;;;5011011;28;20309;-70
2023/08/30 04:30:38;;;;;;;0.60;0.60;;;20.70;99.90;;;;;;5012175;28;20202;-70
2023/08/30 04:33:07;;;;;;;0.60;0.60;;;20.70;99.90;;;;;;5010203;28;20286;-69
2023/08/30 04:35:35;;;;;;;0.60;0.60;;;20.70;99.90;;;;;;5008532;28;20632;-70
2023/08/30 04:38:03;;;;;;;0.45;0.45;;;20.70;99.90;;;;;;5010517;28;20206;-69
2023/08/30 04:40:33;;;;;;;0.40;0.40;;;20.70;99.90;;;;;;5026670;28;20290;-70
2023/08/30 04:43:01;;;;;;;0.50;0.50;;;20.70;99.90;;;;;;5011923;28;20214;-70
2023/08/30 04:45:32;;;;;;;0.70;0.70;;;20.70;99.90;;;;;;5011640;28;20249;-71
2023/08/30 04:47:59;;;;;;;0.60;0.60;;;20.70;99.90;;;;;;5011549;28;20211;-71
2023/08/30 04:50:30;;;;;;;0.77;0.77;;;20.70;99.90;;;;;;5015828;28;20205;-71
2023/08/30 04:52:59;;;;;;;0.50;0.50;;;20.70;99.90;;;;;;5033408;28;20274;-71
2023/08/30 04:55:26;;;;;;;0.52;0.52;;;20.70;99.90;;;;;;5015928;28;20202;-71
2023/08/30 04:57:53;;;;;;;0.60;0.60;;;20.70;99.90;;;;;;5022202;28;20214;-70
2023/08/30 05:00:20;;;;;;;0.40;0.40;;;20.70;99.90;;;;;;5015226;28;20214;-70
2023/08/30 05:02:48;;;;;;;0.60;0.60;;;20.70;99.90;;;;;;5015171;28;20332;-70
2023/08/30 05:05:18;;;;;;;0.55;0.55;;;20.80;99.90;;;;;;5033726;28;20249;-70
2023/08/30 05:07:46;;;;;;;0.50;0.50;;;20.80;99.90;;;;;;5014792;28;20269;-70
2023/08/30 05:10:14;;;;;;;0.63;0.63;;;20.80;99.90;;;;;;5015651;28;20202;-69
2023/08/30 05:12:44;;;;;;;0.60;0.60;;;20.80;99.90;;;;;;5014535;28;20221;-69
2023/08/30 05:15:11;;;;;;;0.50;0.50;;;20.80;99.90;;;;;;5020484;28;20565;-69
2023/08/30 05:17:38;;;;;;;0.50;0.50;;;20.80;99.90;;;;;;5013990;28;20260;-70
2023/08/30 05:20:06;;;;;;;0.60;0.60;;;20.80;99.90;;;;;;5018356;28;20211;-69
2023/08/30 05:22:34;;;;;;;0.50;0.50;;;20.80;99.90;;;;;;5008711;28;20213;-70
2023/08/30 05:25:02;;;;;;;0.73;0.73;;;20.80;99.90;;;;;;5033389;28;20190;-69
2023/08/30 05:27:30;;;;;;;0.40;0.40;;;20.80;99.90;;;;;;5008359;28;20203;-70
2023/08/30 05:29:57;;;;;;;0.57;0.57;;;20.80;99.90;;;;;;5010239;28;20212;-69
2023/08/30 05:32:26;;;;;;;0.52;0.52;;;20.90;99.90;;;;;;5013988;28;20202;-69
2023/08/30 05:35:06;;;;;;;0.43;0.43;;;20.80;99.90;;;;;;5025910;28;20190;-69
2023/08/30 05:37:53;;;;;;;0.70;0.70;;;20.80;99.90;;;;;;5031861;28;20214;-68
2023/08/30 05:40:30;;;;;;;0.60;0.60;;;20.80;99.90;;;;;;5014299;28;20250;-69
2023/08/30 05:43:01;;;;;;;0.55;0.55;;;20.80;99.90;;;;;;5011119;28;20671;-69
2023/08/30 05:45:28;;;;;;;0.57;0.57;;;20.90;99.90;;;;;;5010119;28;20698;-68
2023/08/30 05:47:55;;;;;;;0.40;0.40;;;20.90;99.90;;;;;;5012314;28;20232;-69
2023/08/30 05:50:26;;;;;;;0.63;0.63;;;20.90;99.90;;;;;;5016634;28;20278;-69
2023/08/30 05:52:54;;;;;;;0.50;0.50;;;20.90;99.90;;;;;;5014648;28;20199;-69
2023/08/30 05:55:21;;;;;;;0.50;0.50;;;20.90;99.90;;;;;;5032179;28;20225;-69
2023/08/30 05:57:49;;;;;;;0.60;0.60;;;20.90;99.90;;;;;;5031142;28;20279;-70
2023/08/30 06:00:17;;;;;;;0.60;0.60;;;21.00;99.90;;;;;;5008873;28;20218;-69
2023/08/30 06:02:44;;;;;;;0.70;0.70;;;21.00;99.90;;;;;;5031125;28;20199;-68
2023/08/30 06:05:11;;;;;;;0.55;0.55;;;20.90;99.90;;;;;;5032180;28;20244;-69
2023/08/30 06:07:39;;;;;;;0.50;0.50;;;20.90;99.90;;;;;;5013807;28;20277;-69
2023/08/30 06:10:06;;;;;;;0.70;0.70;;;20.90;99.90;;;;;;5026830;28;20218;-69
2023/08/30 06:12:34;;;;;;;1.38;0.68;;;20.90;99.90;;;;;;5015980;28;20630;-69
2023/08/30 06:15:03;;;;;;;0.60;0.60;;;20.90;99.90;;;;;;5028396;28;20217;-68
2023/08/30 06:17:30;;;;;;;0.68;0.68;;;20.80;99.90;;;;;;5026212;28;20626;-68
2023/08/30 06:19:57;;;;;;;0.55;0.55;;;20.80;99.90;;;;;;5022201;28;20198;-69
2023/08/30 06:22:24;;;;;;;0.43;0.43;;;20.80;99.90;;;;;;5009499;28;20199;-68
2023/08/30 06:24:52;;;;;;;0.57;0.57;;;20.80;99.90;;;;;;5026868;28;20278;-68
2023/08/30 06:27:20;;;;;;;0.80;0.52;;;20.80;99.90;;;;;;5029776;28;20194;-68
2023/08/30 06:29:47;;;;;;;0.40;0.40;;;20.70;99.90;;;;;;5027131;28;20722;-68
2023/08/30 06:32:15;;;;;;;0.50;0.50;;;20.70;99.90;;;;;;5014253;28;20848;-68
2023/08/30 06:34:42;;;;;;;0.68;0.68;;;20.70;99.90;;;;;;5008879;28;20199;-68
2023/08/30 06:37:09;;;;;;;0.40;0.40;;;20.80;99.90;;;;;;5024440;28;20207;-68
2023/08/30 06:39:37;;;;;;;0.45;0.45;;;20.70;99.90;;;;;;5005373;28;20293;-69
2023/08/30 06:42:05;;;;;;;0.50;0.50;;;20.80;99.90;;;;;;5017803;28;20302;-69
2023/08/30 06:44:34;;;;;;;0.70;0.70;;;20.80;99.90;;;;;;5011914;28;20282;-69
2023/08/30 06:47:01;;;;;;;0.50;0.50;;;20.80;99.90;;;;;;5014344;28;20214;-69
2023/08/30 06:49:31;;;;;;;0.73;0.40;;;20.80;99.90;;;;;;5016851;28;20238;-68
2023/08/30 06:52:03;;;;;;;0.40;0.40;;;20.80;99.90;;;;;;5022277;28;20771;-68
2023/08/30 06:54:31;;;;;;;0.40;0.40;;;20.80;99.90;;;;;;5023633;28;20195;-68
2023/08/30 06:56:59;;;;;;;0.50;0.50;;;20.80;99.90;;;;;;5029060;28;20558;-68
2023/08/30 06:59:26;;;;;;;0.50;0.50;;;20.80;99.90;;;;;;5027709;28;20222;-68
2023/08/30 07:01:54;;;;;;;0.70;0.50;;;20.80;99.90;;;;;;5024922;28;20222;-68
2023/08/30 07:04:21;;;;;;;0.47;0.45;;;20.80;99.90;;;;;;5008726;28;20198;-68
2023/08/30 07:06:49;;;;;;;0.47;0.47;;;20.90;99.90;;;;;;5010825;28;20226;-68
2023/08/30 07:09:16;;;;;;;2.47;0.52;;;20.90;99.90;;;;;;5008102;28;20658;-68
2023/08/30 07:11:45;;;;;;;0.40;0.40;;;20.90;99.90;;;;;;5017511;28;20199;-68
2023/08/30 07:14:14;;;;;;;0.38;0.38;;;21.00;99.90;;;;;;5015635;28;20212;-67
2023/08/30 07:16:41;;;;;;;0.40;0.40;;;21.00;99.90;;;;;;5022181;28;20392;-68
2023/08/30 07:19:09;;;;;;;0.30;0.30;;;21.30;99.90;;;;;;5002545;28;20233;-68
2023/08/30 07:21:38;;;;;;;0.50;0.50;;;21.10;99.90;;;;;;5027177;28;20213;-68
2023/08/30 07:24:08;;;;;;;0.47;0.47;;;21.10;99.90;;;;;;5018096;28;20196;-71
2023/08/30 07:26:36;;;;;;;0.50;0.50;;;21.20;99.90;;;;;;5002693;28;20202;-70
2023/08/30 07:29:04;;;;;;;0.47;0.47;;;21.20;99.90;;;;;;5022007;28;20190;-71
2023/08/30 07:31:34;;;;;;;0.40;0.40;;;21.30;99.90;;;;;;5023206;28;20194;-71
2023/08/30 07:34:03;;;;;;;0.40;0.40;;;21.20;99.90;;;;;;5017165;28;20535;-71
2023/08/30 07:36:32;;;;;;;0.43;0.43;;;21.30;99.90;;;;;;5021758;28;20203;-69
2023/08/30 07:38:59;;;;;;;0.57;0.57;;;21.30;99.90;;;;;;5015223;28;20655;-71
2023/08/30 07:41:28;;;;;;;0.40;0.40;;;21.30;99.90;;;;;;5020081;28;20211;-71
2023/08/30 07:43:56;;;;;;;0.55;0.55;;;21.30;99.90;;;;;;5000024;28;20242;-71
2023/08/30 07:46:23;;;;;;;0.80;0.68;;;21.40;99.90;;;;;;5003807;28;20252;-70
2023/08/30 07:48:51;;;;;;;0.60;0.60;;;21.30;99.90;;;;;;5027073;28;20726;-71
2023/08/30 07:51:20;;;;;;;0.60;0.60;;;21.30;99.90;;;;;;5026391;28;20199;-71
2023/08/30 07:53:47;;;;;;;0.60;0.60;;;21.30;99.90;;;;;;5006963;28;20284;-71
2023/08/30 07:56:14;;;;;;;0.60;0.60;;;21.30;99.90;;;;;;5011382;28;20230;-71
2023/08/30 07:58:43;;;;;;;0.45;0.45;;;21.30;99.90;;;;;;5025814;28;20627;-70
2023/08/30 08:01:12;;;;;;;0.50;0.50;;;21.30;99.90;;;;;;5019057;28;20250;-71
2023/08/30 08:03:41;;;;;;;0.50;0.50;;;21.30;99.90;;;;;;5025461;28;20218;-71
2023/08/30 08:06:08;;;;;;;0.60;0.60;;;21.30;99.90;;;;;;5015390;28;20221;-70
2023/08/30 08:08:38;;;;;;;0.50;0.50;;;21.30;99.90;;;;;;5001703;28;20210;-71
2023/08/30 08:11:05;;;;;;;0.60;0.60;;;21.30;99.90;;;;;;5021383;28;20187;-70
2023/08/30 08:13:32;;;;;;;0.50;0.50;;;21.30;99.90;;;;;;5003668;28;20214;-71
2023/08/30 08:16:00;;;;;;;0.60;0.60;;;21.30;99.90;;;;;;5006916;28;20199;-70
2023/08/30 08:18:28;;;;;;;0.50;0.50;;;21.20;99.90;;;;;;5007774;28;20211;-71
2023/08/30 08:20:55;;;;;;;0.65;0.65;;;21.30;99.90;;;;;;5014868;28;20215;-71
2023/08/30 08:23:22;;;;;;;0.50;0.50;;;21.30;99.90;;;;;;5024115;28;20772;-70
2023/08/30 08:25:49;;;;;;;1.55;0.52;;;21.30;99.90;;;;;;5031255;28;20194;-70
2023/08/30 08:28:17;;;;;;;0.47;0.47;;;21.40;99.90;;;;;;5003224;28;20213;-71
2023/08/30 08:30:50;;;;;;;0.40;0.40;;;21.40;99.90;;;;;;5022067;28;20677;-70
2023/08/30 08:33:19;;;;;;;0.60;0.60;;;21.40;99.90;;;;;;5019747;28;20199;-70
2023/08/30 08:35:48;;;;;;;0.40;0.40;;;21.40;99.90;;;;;;5021884;28;20199;-71
2023/08/30 08:38:15;;;;;;;0.50;0.50;;;21.50;99.90;;;;;;5023084;28;20201;-70
2023/08/30 08:40:42;;;;;;;0.40;0.40;;;21.50;99.90;;;;;;5025329;28;20206;-71
2023/08/30 08:43:12;;;;;;;0.45;0.45;;;21.50;99.90;;;;;;5021480;28;20194;-71
2023/08/30 08:45:41;;;;;;;0.30;0.30;;;21.60;99.90;;;;;;5022594;28;20659;-71
2023/08/30 08:48:10;;;;;;;0.30;0.30;;;21.60;99.90;;;;;;5018527;28;20650;-71
2023/08/30 08:50:39;;;;;;;0.50;0.50;;;21.60;99.90;;;;;;5014285;28;20202;-70
2023/08/30 08:53:07;;;;;;;0.35;0.35;;;21.70;99.90;;;;;;5014690;28;20270;-71
2023/08/30 08:55:35;;;;;;;0.38;0.38;;;21.70;99.90;;;;;;5022143;28;20207;-71
2023/08/30 08:58:04;;;;;;;0.40;0.40;;;21.80;99.90;;;;;;5027560;28;20201;-71
2023/08/30 09:00:32;;;;;;;0.30;0.30;;;21.80;99.90;;;;;;5012866;28;20213;-71
2023/08/30 09:03:00;;;;;;;0.40;0.40;;;21.80;99.90;;;;;;5019675;28;21621;-71
2023/08/30 09:05:29;;;;;;;0.50;0.50;;;21.80;99.90;;;;;;5026900;28;20281;-71
2023/08/30 09:08:02;;;;;;;0.35;0.35;;;21.80;99.90;;;;;;5009926;28;20634;-70
2023/08/30 09:10:29;;;;;;;0.40;0.40;;;21.80;99.90;;;;;;5002777;28;20559;-71
2023/08/30 09:12:56;;;;;;;0.40;0.40;;;21.80;99.90;;;;;;5004118;28;20227;-71
2023/08/30 09:15:23;;;;;;;0.50;0.50;;;21.80;99.90;;;;;;5021707;28;20330;-71
2023/08/30 09:17:50;;;;;;;0.40;0.40;;;21.80;99.90;;;;;;5024724;28;20205;-71
2023/08/30 09:20:18;;;;;;;0.30;0.30;;;21.80;99.90;;;;;;5029781;28;20253;-69
2023/08/30 09:22:45;;;;;;;0.43;0.43;;;21.80;99.90;;;;;;5003912;28;20226;-70
2023/08/30 09:25:25;;;;;;;0.40;0.40;;;21.80;99.90;;;;;;5021696;28;20569;-70
2023/08/30 09:27:52;;;;;;;0.47;0.47;;;21.80;99.90;;;;;;5023835;28;20316;-70
2023/08/30 09:30:22;;;;;;;0.50;0.50;;;21.80;99.90;;;;;;5012746;28;20226;-70
2023/08/30 09:32:51;;;;;;;0.40;0.40;;;21.80;99.90;;;;;;5006736;28;20229;-71
2023/08/30 09:35:19;;;;;;;0.40;0.40;;;21.80;99.90;;;;;;5023472;28;20241;-71
2023/08/30 09:37:49;;;;;;;0.40;0.40;;;21.90;99.90;;;;;;5025055;28;20202;-70
2023/08/30 09:40:22;;;;;;;0.80;0.50;;;22.00;99.90;;;;;;5030532;28;20665;-71
2023/08/30 09:42:49;;;;;;;0.60;0.60;;;22.10;99.90;;;;;;5022781;28;20218;-70
2023/08/30 09:45:20;;;;;;;0.57;0.57;;;22.10;99.90;;;;;;5009425;28;20198;-71
2023/08/30 09:47:49;;;;;;;0.40;0.40;;;22.10;99.90;;;;;;5018959;28;20627;-71
2023/08/30 09:50:19;;;;;;;0.40;0.40;;;22.20;99.90;;;;;;5013449;28;20207;-71
2023/08/30 09:52:48;;;;;;;0.40;0.40;;;22.10;99.90;;;;;;5030361;28;20194;-71
2023/08/30 09:55:16;;;;;;;0.45;0.45;;;22.10;99.90;;;;;;5025115;28;20227;-71
2023/08/30 09:57:44;;;;;;;0.50;0.50;;;22.20;99.90;;;;;;5019928;28;20211;-71
2023/08/30 10:00:13;;;;;;;0.50;0.50;;;22.10;99.90;;;;;;5030152;28;20191;-71
2023/08/30 10:02:43;;;;;;;0.55;0.55;;;22.20;99.90;;;;;;5029455;28;20229;-71
2023/08/30 10:05:12;;;;;;;0.40;0.40;;;22.20;99.90;;;;;;5017689;28;20190;-71
2023/08/30 10:07:40;;;;;;;0.40;0.40;;;22.20;99.90;;;;;;5020319;28;20230;-71
2023/08/30 10:10:09;;;;;;;0.40;0.40;;;22.10;99.90;;;;;;5020133;28;20196;-71
2023/08/30 10:12:36;;;;;;;0.50;0.50;;;22.20;99.90;;;;;;5024387;28;20190;-72
2023/08/30 10:15:06;;;;;;;0.40;0.40;;;22.20;99.90;;;;;;5026666;28;20190;-73
2023/08/30 10:17:35;;;;;;;0.43;0.43;;;22.10;99.90;;;;;;5005672;28;20732;-72
2023/08/30 10:20:06;;;;;;;0.40;0.40;;;22.10;99.90;;;;;;5026062;28;20344;-70
2023/08/30 10:22:36;;;;;;;0.40;0.40;;;22.10;99.90;;;;;;5025226;28;20344;-70
2023/08/30 10:25:07;;;;;;;0.40;0.40;;;22.10;99.90;;;;;;5028282;28;20182;-71
2023/08/30 10:27:37;;;;;;;0.35;0.35;;;22.10;99.90;;;;;;5007317;28;20218;-71
2023/08/30 10:30:15;;;;;;;0.95;0.50;;;22.10;99.90;;;;;;5025600;28;20198;-71
2023/08/30 10:32:44;;;;;;;0.60;0.47;;;22.10;99.90;;;;;;5027416;28;20665;-70
2023/08/30 10:35:14;;;;;;;0.95;0.50;;;22.10;99.90;;;;;;5029976;28;20704;-70
2023/08/30 10:37:42;;;;;;;0.50;0.43;;;22.10;99.90;;;;;;5023270;28;20198;-71
2023/08/30 10:40:10;;;;;;;0.30;0.30;;;22.10;99.90;;;;;;5007818;28;20577;-67
2023/08/30 10:42:37;;;;;;;0.50;0.50;;;22.10;99.90;;;;;;5009241;28;20222;-67
2023/08/30 10:45:08;;;;;;;0.50;0.50;;;22.10;99.90;;;;;;5029061;28;20694;-67
2023/08/30 10:47:37;;;;;;;0.60;0.60;;;22.00;99.90;;;;;;5025720;28;20279;-67
2023/08/30 10:50:07;;;;;;;0.60;0.60;;;22.00;99.90;;;;;;5008827;28;20198;-66
2023/08/30 10:52:34;;;;;;;1.90;0.50;;;21.80;99.90;;;;;;5010637;28;20214;-67
2023/08/30 10:55:08;;;;;;;0.52;0.52;;;21.80;99.90;;;;;;4999120;28;20206;-67
2023/08/30 10:57:36;;;;;;;2.33;0.60;;;21.80;99.90;;;;;;5021207;28;20279;-68
2023/08/30 11:00:09;;;;;;;0.60;0.60;;;21.80;99.90;;;;;;5019437;28;20547;-67
2023/08/30 11:02:37;;;;;;;0.50;0.50;;;21.80;99.90;;;;;;5027847;28;21494;-68
2023/08/30 11:05:06;;;;;;;0.70;0.70;;;21.70;99.90;;;;;;5029624;28;20278;-67
2023/08/30 11:07:36;;;;;;;0.60;0.60;;;21.70;99.90;;;;;;5016602;28;20270;-67
2023/08/30 11:10:06;;;;;;;0.65;0.65;;;21.60;99.90;;;;;;5026476;28;20205;-66
2023/08/30 11:12:33;;;;;;;0.60;0.60;;;21.60;99.90;;;;;;5018133;28;20202;-68
2023/08/30 11:15:00;;;;;;;0.40;0.40;;;21.60;99.90;;;;;;5021502;28;20507;-67
2023/08/30 11:17:29;;;;;;;0.50;0.50;;;21.60;99.90;;;;;;5027343;28;20194;-67
2023/08/30 11:20:06;;;;;;;0.60;0.60;;;21.50;99.90;;;;;;5027272;28;20206;-68
2023/08/30 11:22:33;;;;;;;0.50;0.50;;;21.50;99.90;;;;;;5025442;28;20752;-66
2023/08/30 11:25:00;;;;;;;0.50;0.50;;;21.50;99.90;;;;;;5010892;28;20190;-68
2023/08/30 11:27:28;;;;;;;0.60;0.60;;;21.50;99.90;;;;;;5028979;28;20206;-67
2023/08/30 11:30:00;;;;;;;0.50;0.50;;;21.50;99.90;;;;;;5027807;28;20206;-67
2023/08/30 11:32:33;;;;;;;0.50;0.50;;;21.50;99.90;;;;;;5028213;28;20195;-67
2023/08/30 11:35:00;;;;;;;0.30;0.30;;;21.50;99.90;;;;;;5024612;28;20558;-67
2023/08/30 11:37:28;;;;;;;0.60;0.60;;;21.50;99.90;;;;;;5028598;28;20206;-67
2023/08/30 11:40:03;;;;;;;0.50;0.50;;;21.50;99.90;;;;;;5024089;28;20198;-68
2023/08/30 11:42:32;;;;;;;0.50;0.50;;;21.50;99.90;;;;;;5005154;28;20224;-68
2023/08/30 11:44:59;;;;;;;0.45;0.45;;;21.40;99.90;;;;;;5027859;28;20277;-68
2023/08/30 11:47:28;;;;;;;0.50;0.50;;;21.40;99.90;;;;;;5027431;28;20309;-67
2023/08/30 11:49:58;;;;;;;1.50;0.68;;;21.40;99.90;;;;;;5028303;28;20206;-68
2023/08/30 11:52:28;;;;;;;0.60;0.60;;;21.40;99.90;;;;;;5029024;28;20179;-71
2023/08/30 11:54:56;;;;;;;0.65;0.65;;;21.40;99.90;;;;;;5026547;28;20277;-68
2023/08/30 11:57:23;;;;;;;0.60;0.60;;;21.50;99.90;;;;;;5010504;28;20655;-70
2023/08/30 11:59:50;;;;;;;0.50;0.50;;;21.50;99.90;;;;;;5027299;28;20631;-70
2023/08/30 12:02:18;;;;;;;0.90;0.60;;;21.50;99.90;;;;;;5027638;28;20237;-70
2023/08/30 12:04:48;;;;;;;0.50;0.50;;;21.60;99.90;;;;;;5025845;28;20198;-71
2023/08/30 12:07:26;;;;;;;0.50;0.50;;;21.60;99.90;;;;;;5027435;28;20235;-71
2023/08/30 12:10:04;;;;;;;0.60;0.60;;;21.70;99.90;;;;;;5015818;28;20574;-71
2023/08/30 12:12:33;;;;;;;1.20;0.60;;;21.80;99.90;;;;;;5024974;28;20201;-70
2023/08/30 12:15:00;;;;;;;0.43;0.43;;;21.80;99.90;;;;;;5022723;28;20238;-69
2023/08/30 12:17:27;;;;;;;0.60;0.60;;;21.80;99.90;;;;;;5025000;28;20222;-70
2023/08/30 12:20:03;;;;;;;0.52;0.52;;;21.80;99.90;;;;;;5023067;28;20891;-70
2023/08/30 12:22:41;;;;;;;0.57;0.57;;;22.90;99.90;;;;;;5025334;28;20206;-70
2023/08/30 12:25:17;;;;;;;0.70;0.70;;;21.90;99.90;;;;;;5021835;28;20224;-71
2023/08/30 12:27:47;;;;;;;0.50;0.50;;;21.90;99.90;;;;;;5019676;28;20202;-70
2023/08/30 12:30:16;;;;;;;0.60;0.60;;;21.90;99.90;;;;;;4993939;28;20663;-70
2023/08/30 12:32:48;;;;;;;0.60;0.60;;;21.90;99.90;;;;;;5021402;28;20203;-70
2023/08/30 12:35:18;;;;;;;0.73;0.73;;;22.00;99.90;;;;;;5026184;28;20213;-69
2023/08/30 12:37:46;;;;;;;0.60;0.60;;;22.00;99.90;;;;;;5027826;28;20237;-69
2023/08/30 12:40:13;;;;;;;0.60;0.60;;;22.00;99.90;;;;;;5024465;28;20230;-69
2023/08/30 12:42:40;;;;;;;0.68;0.68;;;21.90;99.90;;;;;;5027211;28;20199;-69
2023/08/30 12:45:08;;;;;;;0.55;0.55;;;21.90;99.90;;;;;;5010145;28;20733;-69
2023/08/30 12:47:36;;;;;;;0.68;0.68;;;21.90;99.90;;;;;;5023633;28;20194;-68
2023/08/30 12:50:03;;;;;;;0.60;0.60;;;21.90;99.90;;;;;;5022364;28;20725;-69
2023/08/30 12:52:30;;;;;;;0.60;0.60;;;21.90;99.90;;;;;;5028516;28;20278;-69
2023/08/30 12:54:59;;;;;;;0.50;0.50;;;21.90;99.90;;;;;;5008754;28;20253;-69
2023/08/30 12:57:26;;;;;;;0.50;0.50;;;21.90;99.90;;;;;;5027834;28;20266;-68